createdAt,value
2019-02-11T00:01:25.719Z,33.77
2019-02-11T00:03:32.262Z,33.33
2019-02-11T00:05:39.060Z,33.23
2019-02-11T00:07:45.496Z,36.23
2019-02-11T00:09:52.137Z,39.53
2019-02-11T00:11:58.637Z,41.50
2019-02-11T00:14:05.166Z,42.23
2019-02-11T00:16:13.337Z,34.33
2019-02-11T00:18:19.996Z,37.83
2019-02-11T00:20:26.678Z,36.70
2019-02-11T00:22:33.957Z,33.03
2019-02-11T00:24:40.819Z,35.60
2019-02-11T00:26:47.837Z,46.00
2019-02-11T00:28:54.879Z,39.10
2019-02-11T00:31:01.636Z,38.27
2019-02-11T00:33:08.159Z,36.80
2019-02-11T00:35:14.817Z,44.10
2019-02-11T00:37:21.416Z,37.13
2019-02-11T00:39:29.917Z,36.13
2019-02-11T00:41:36.817Z,31.90
2019-02-11T00:43:43.497Z,35.20
2019-02-11T00:45:50.057Z,33.33
2019-02-11T00:47:58.459Z,38.43
2019-02-11T00:50:06.971Z,40.27
2019-02-11T00:52:13.699Z,40.63
2019-02-11T00:54:20.458Z,44.03
2019-02-11T00:56:27.418Z,36.77
2019-02-11T00:58:34.300Z,31.37
2019-02-11T01:00:41.119Z,35.30
2019-02-11T01:02:47.897Z,32.43
2019-02-11T01:04:54.637Z,37.83
2019-02-11T01:07:01.397Z,36.27
2019-02-11T01:09:08.177Z,31.57
2019-02-11T01:11:15.277Z,38.27
2019-02-11T01:13:27.586Z,35.87
2019-02-11T01:15:30.829Z,34.03
2019-02-11T01:17:37.504Z,32.80
2019-02-11T01:19:45.823Z,35.70
2019-02-11T01:21:52.826Z,39.80
2019-02-11T01:23:59.519Z,34.40
2019-02-11T01:26:08.360Z,30.67
2019-02-11T01:28:14.860Z,33.03
2019-02-11T01:30:21.685Z,37.57
2019-02-11T01:32:28.271Z,32.67
2019-02-11T01:34:35.419Z,31.40
2019-02-11T01:36:41.982Z,32.77
2019-02-11T01:38:49.359Z,34.90
2019-02-11T01:40:56.279Z,34.63
2019-02-11T01:43:04.239Z,31.67
2019-02-11T01:45:14.439Z,32.77
2019-02-11T01:47:21.159Z,30.27
2019-02-11T01:49:27.820Z,29.97
2019-02-11T01:51:34.479Z,35.10
2019-02-11T01:53:41.258Z,31.60
2019-02-11T01:55:47.999Z,35.10
2019-02-11T01:57:57.618Z,35.90
2019-02-11T02:00:07.299Z,31.20
2019-02-11T02:02:16.398Z,33.07
2019-02-11T02:04:23.758Z,34.13
2019-02-11T02:06:33.461Z,29.03
2019-02-11T02:08:40.658Z,30.33
2019-02-11T02:10:49.018Z,26.27
2019-02-11T02:12:55.637Z,32.30
2019-02-11T02:15:02.159Z,32.20
2019-02-11T02:17:10.136Z,34.00
2019-02-11T02:19:16.976Z,32.90
2019-02-11T02:21:23.639Z,31.77
2019-02-11T02:23:30.377Z,34.70
2019-02-11T02:25:37.616Z,27.63
2019-02-11T02:27:44.276Z,33.47
2019-02-11T02:29:51.056Z,30.53
2019-02-11T02:31:57.462Z,27.90
2019-02-11T02:34:04.702Z,28.13
2019-02-11T02:36:11.601Z,28.50
2019-02-11T02:38:18.720Z,27.57
2019-02-11T02:40:25.907Z,31.07
2019-02-11T02:42:32.982Z,26.70
2019-02-11T02:44:39.588Z,33.03
2019-02-11T02:46:46.400Z,28.53
2019-02-11T02:48:52.901Z,31.93
2019-02-11T02:51:00.460Z,30.13
2019-02-11T02:53:07.020Z,29.10
2019-02-11T02:55:14.901Z,29.83
2019-02-11T02:57:21.619Z,27.37
2019-02-11T02:59:30.618Z,28.60
2019-02-11T03:01:37.338Z,26.97
2019-02-11T03:03:44.121Z,26.47
2019-02-11T03:05:52.828Z,29.60
2019-02-11T03:07:59.097Z,29.77
2019-02-11T03:10:11.017Z,23.73
2019-02-11T03:12:17.978Z,28.20
2019-02-11T03:14:25.777Z,25.17
2019-02-11T03:16:33.417Z,25.30
2019-02-11T03:18:39.936Z,26.53
2019-02-11T03:20:46.836Z,24.90
2019-02-11T03:22:53.956Z,28.30
2019-02-11T03:25:01.817Z,23.70
2019-02-11T03:27:08.576Z,26.43
2019-02-11T03:29:15.475Z,22.77
2019-02-11T03:31:22.522Z,22.77
2019-02-11T03:33:29.658Z,24.23
2019-02-11T03:35:36.403Z,24.10
2019-02-11T03:37:42.936Z,23.00
2019-02-11T03:39:49.982Z,22.67
2019-02-11T03:41:56.678Z,25.90
2019-02-11T03:44:04.097Z,22.97
2019-02-11T03:46:10.658Z,23.63
2019-02-11T03:48:17.998Z,23.37
2019-02-11T03:50:25.019Z,27.90
2019-02-11T03:52:32.197Z,21.37
2019-02-11T03:54:41.856Z,24.73
2019-02-11T03:56:49.839Z,23.90
2019-02-11T03:58:56.558Z,22.13
2019-02-11T04:01:03.136Z,21.17
2019-02-11T04:03:09.837Z,21.13
2019-02-11T04:05:17.080Z,26.17
2019-02-11T04:07:23.757Z,23.13
2019-02-11T04:09:30.696Z,23.47
2019-02-11T04:11:38.460Z,23.20
2019-02-11T04:13:46.317Z,22.93
2019-02-11T04:15:53.517Z,27.03
2019-02-11T04:18:00.159Z,20.90
2019-02-11T04:20:08.675Z,28.07
2019-02-11T04:22:15.736Z,21.90
2019-02-11T04:24:22.249Z,22.93
2019-02-11T04:26:33.257Z,23.17
2019-02-11T04:28:40.057Z,23.97
2019-02-11T04:30:47.900Z,24.87
2019-02-11T04:32:54.539Z,21.53
2019-02-11T04:35:01.270Z,28.53
2019-02-11T04:37:09.658Z,21.23
2019-02-11T04:39:18.178Z,27.17
2019-02-11T04:41:25.339Z,19.67
2019-02-11T04:43:31.813Z,24.43
2019-02-11T04:45:38.732Z,22.07
2019-02-11T04:47:47.107Z,18.97
2019-02-11T04:49:53.862Z,22.87
2019-02-11T04:52:00.565Z,20.83
2019-02-11T04:54:07.198Z,22.20
2019-02-11T04:56:15.321Z,25.07
2019-02-11T04:58:21.759Z,20.50
2019-02-11T05:00:28.501Z,20.07
2019-02-11T05:02:38.248Z,20.70
2019-02-11T05:04:47.048Z,23.10
2019-02-11T05:06:53.976Z,22.53
2019-02-11T05:09:00.431Z,21.93
2019-02-11T05:11:08.872Z,20.33
2019-02-11T05:13:15.775Z,18.83
2019-02-11T05:15:22.476Z,22.20
2019-02-11T05:17:29.266Z,20.43
2019-02-11T05:19:36.080Z,19.93
2019-02-11T05:21:42.744Z,19.10
2019-02-11T05:23:49.621Z,20.07
2019-02-11T05:25:56.284Z,20.43
2019-02-11T05:28:05.837Z,20.83
2019-02-11T05:30:12.881Z,19.53
2019-02-11T05:32:19.765Z,17.90
2019-02-11T05:34:27.128Z,20.37
2019-02-11T05:36:33.690Z,20.53
2019-02-11T05:38:40.649Z,18.17
2019-02-11T05:40:48.057Z,18.17
2019-02-11T05:42:56.360Z,17.33
2019-02-11T05:45:05.546Z,16.97
2019-02-11T05:47:12.160Z,17.20
2019-02-11T05:49:19.265Z,18.23
2019-02-11T05:51:27.402Z,16.57
2019-02-11T05:53:34.028Z,15.93
2019-02-11T05:55:41.842Z,17.63
2019-02-11T05:57:48.731Z,16.27
2019-02-11T05:59:55.288Z,15.97
2019-02-11T06:02:02.029Z,18.23
2019-02-11T06:04:08.761Z,15.13
2019-02-11T06:06:15.701Z,19.73
2019-02-11T06:08:22.649Z,16.60
2019-02-11T06:10:29.240Z,19.00
2019-02-11T06:12:37.329Z,18.63
2019-02-11T06:14:45.405Z,19.57
2019-02-11T06:16:52.421Z,16.63
2019-02-11T06:18:59.420Z,16.83
2019-02-11T06:21:06.151Z,18.37
2019-02-11T06:23:12.819Z,18.70
2019-02-11T06:25:19.861Z,17.87
2019-02-11T06:27:28.840Z,20.37
2019-02-11T06:29:35.777Z,16.50
2019-02-11T06:31:42.497Z,17.43
2019-02-11T06:33:48.952Z,18.33
2019-02-11T06:35:58.363Z,18.37
2019-02-11T06:38:05.298Z,16.00
2019-02-11T06:40:12.910Z,19.33
2019-02-11T06:42:20.959Z,17.47
2019-02-11T06:44:28.146Z,18.20
2019-02-11T06:46:35.222Z,18.03
2019-02-11T06:48:42.101Z,21.07
2019-02-11T06:50:48.709Z,16.27
2019-02-11T06:52:55.610Z,15.17
2019-02-11T06:55:04.100Z,16.10
2019-02-11T06:57:12.245Z,18.37
2019-02-11T06:59:19.290Z,16.63
2019-02-11T07:01:25.882Z,22.87
2019-02-11T07:03:33.042Z,39.93
2019-02-11T07:05:39.730Z,102.30
2019-02-11T07:07:46.317Z,27.37
2019-02-11T07:09:54.741Z,18.63
2019-02-11T07:12:01.881Z,15.60
2019-02-11T07:14:08.539Z,14.43
2019-02-11T07:16:15.381Z,13.40
2019-02-11T07:18:31.740Z,13.63
2019-02-11T07:20:39.810Z,15.50
2019-02-11T07:22:47.933Z,12.03
2019-02-11T07:24:54.880Z,14.00
2019-02-11T07:27:01.730Z,11.40
2019-02-11T07:29:08.507Z,12.00
2019-02-11T07:31:16.571Z,13.67
2019-02-11T07:33:23.222Z,9.83
2019-02-11T07:35:29.619Z,10.80
2019-02-11T07:37:36.911Z,13.30
2019-02-11T07:39:44.690Z,9.60
2019-02-11T07:42:08.040Z,11.90
2019-02-11T07:44:16.360Z,14.93
2019-02-11T07:46:24.759Z,9.40
2019-02-11T07:48:34.010Z,12.97
2019-02-11T07:50:40.873Z,15.70
2019-02-11T07:52:50.939Z,10.60
2019-02-11T07:54:59.570Z,10.97
2019-02-11T07:57:06.432Z,12.60
2019-02-11T07:59:13.390Z,11.23
2019-02-11T08:01:21.639Z,12.67
2019-02-11T08:03:28.317Z,11.80
2019-02-11T08:05:36.470Z,12.27
2019-02-11T08:07:43.058Z,12.90
2019-02-11T08:10:07.421Z,10.70
2019-02-11T08:12:15.510Z,9.13
2019-02-11T08:14:22.630Z,10.97
2019-02-11T08:16:29.131Z,12.63
2019-02-11T08:18:35.700Z,11.23
2019-02-11T08:20:42.341Z,11.93
2019-02-11T08:22:48.990Z,11.43
2019-02-11T08:24:57.710Z,11.43
2019-02-11T08:27:04.277Z,14.87
2019-02-11T08:29:11.580Z,21.50
2019-02-11T08:31:18.288Z,12.40
2019-02-11T08:33:25.319Z,11.87
2019-02-11T08:35:32.601Z,16.87
2019-02-11T08:37:39.020Z,20.20
2019-02-11T08:39:47.203Z,12.47
2019-02-11T08:41:54.239Z,12.93
2019-02-11T08:44:02.759Z,14.43
2019-02-11T08:46:09.717Z,12.30
2019-02-11T08:48:16.194Z,11.20
2019-02-11T08:50:26.990Z,12.00
2019-02-11T08:52:35.482Z,11.60
2019-02-11T08:54:42.150Z,13.23
2019-02-11T08:56:52.088Z,10.67
2019-02-11T08:58:59.322Z,11.93
2019-02-11T09:01:06.316Z,13.30
2019-02-11T09:03:12.947Z,12.97
2019-02-11T09:05:19.601Z,11.10
2019-02-11T09:07:26.400Z,10.27
2019-02-11T09:09:32.848Z,11.40
2019-02-11T09:11:39.641Z,10.17
2019-02-11T09:13:46.120Z,13.83
2019-02-11T09:15:55.318Z,13.00
2019-02-11T09:18:03.178Z,23.33
2019-02-11T09:20:12.050Z,9.47
2019-02-11T09:22:18.661Z,10.33
2019-02-11T09:24:25.411Z,9.13
2019-02-11T09:26:32.127Z,9.13
2019-02-11T09:28:40.635Z,15.93
2019-02-11T09:30:47.490Z,11.17
2019-02-11T09:32:54.304Z,7.53
2019-02-11T09:35:00.735Z,6.57
2019-02-11T09:37:07.692Z,8.37
2019-02-11T09:39:16.744Z,8.90
2019-02-11T09:41:24.600Z,9.53
2019-02-11T09:43:31.210Z,14.33
2019-02-11T09:45:38.040Z,10.27
2019-02-11T09:47:44.548Z,10.50
2019-02-11T09:50:13.920Z,11.00
2019-02-11T09:52:20.777Z,8.23
2019-02-11T09:54:29.339Z,9.20
2019-02-11T09:56:36.043Z,9.73
2019-02-11T09:58:42.756Z,8.00
2019-02-11T10:00:49.842Z,6.27
2019-02-11T10:02:56.669Z,4.40
2019-02-11T10:05:05.269Z,2.80
2019-02-11T10:07:12.511Z,2.63
2019-02-11T10:09:19.420Z,4.27
2019-02-11T10:11:27.408Z,4.20
2019-02-11T10:13:33.989Z,2.10
2019-02-11T10:15:40.732Z,2.47
2019-02-11T10:17:47.312Z,3.20
2019-02-11T10:19:53.781Z,7.77
2019-02-11T10:22:02.136Z,3.13
2019-02-11T10:24:08.791Z,2.80
2019-02-11T10:26:16.512Z,4.87
2019-02-11T10:28:23.353Z,1.80
2019-02-11T10:30:30.132Z,2.47
2019-02-11T10:32:37.095Z,1.83
2019-02-11T10:34:44.930Z,1.07
2019-02-11T10:36:51.769Z,0.90
2019-02-11T10:38:58.360Z,8.73
2019-02-11T10:41:06.344Z,2.50
2019-02-11T10:43:13.273Z,2.63
2019-02-11T10:45:19.631Z,7.07
2019-02-11T10:47:27.710Z,3.40
2019-02-11T10:49:34.536Z,2.57
2019-02-11T10:51:41.570Z,7.07
2019-02-11T10:53:49.936Z,3.50
2019-02-11T10:55:57.888Z,3.33
2019-02-11T10:58:05.539Z,4.40
2019-02-11T11:00:24.966Z,3.23
2019-02-11T11:02:31.613Z,4.13
2019-02-11T11:04:38.397Z,3.30
2019-02-11T11:06:48.520Z,6.10
2019-02-11T11:08:55.347Z,3.27
2019-02-11T11:11:02.226Z,5.67
2019-02-11T11:13:09.185Z,4.53
2019-02-11T11:15:15.940Z,10.23
2019-02-11T11:17:22.940Z,4.67
2019-02-11T11:19:33.164Z,4.00
2019-02-11T11:21:39.680Z,4.20
2019-02-11T11:23:47.380Z,4.83
2019-02-11T11:25:55.690Z,5.90
2019-02-11T11:28:02.287Z,5.47
2019-02-11T11:30:13.299Z,5.80
2019-02-11T11:32:20.030Z,6.30
2019-02-11T11:34:27.908Z,4.90
2019-02-11T11:36:34.889Z,8.40
2019-02-11T11:38:41.627Z,9.70
2019-02-11T11:40:50.993Z,7.63
2019-02-11T11:42:58.825Z,7.20
2019-02-11T11:45:10.530Z,11.23
2019-02-11T11:47:17.827Z,12.37
2019-02-11T11:49:24.523Z,7.83
2019-02-11T11:51:31.303Z,9.03
2019-02-11T11:53:40.267Z,9.83
2019-02-11T11:55:48.427Z,9.60
2019-02-11T11:57:55.187Z,7.50
2019-02-11T12:00:01.859Z,9.90
2019-02-11T12:02:09.035Z,5.43
2019-02-11T12:04:18.577Z,8.30
2019-02-11T12:06:27.933Z,9.70
2019-02-11T12:08:34.801Z,4.87
2019-02-11T12:10:41.392Z,12.57
2019-02-11T12:12:48.183Z,9.43
2019-02-11T12:14:55.185Z,9.23
2019-02-11T12:17:03.151Z,8.20
2019-02-11T12:19:11.799Z,7.37
2019-02-11T12:21:18.495Z,8.40
2019-02-11T12:23:25.831Z,7.23
2019-02-11T12:25:34.058Z,10.03
2019-02-11T12:27:40.844Z,7.63
2019-02-11T12:29:47.713Z,14.03
2019-02-11T12:31:54.268Z,6.57
2019-02-11T12:34:00.851Z,7.97
2019-02-11T12:36:09.096Z,11.43
2019-02-11T12:38:15.855Z,5.77
2019-02-11T12:40:22.741Z,9.33
2019-02-11T12:42:29.808Z,7.77
2019-02-11T12:44:37.766Z,5.77
2019-02-11T12:46:44.328Z,4.90
2019-02-11T12:48:51.134Z,6.70
2019-02-11T12:50:57.729Z,2.83
2019-02-11T12:53:04.349Z,6.03
2019-02-11T12:55:14.173Z,10.80
2019-02-11T12:57:22.288Z,4.57
2019-02-11T12:59:29.060Z,4.87
2019-02-11T13:01:37.305Z,9.97
2019-02-11T13:03:45.809Z,14.23
2019-02-11T13:05:55.306Z,4.77
2019-02-11T13:08:03.540Z,5.50
2019-02-11T13:10:14.714Z,4.23
2019-02-11T13:12:22.743Z,3.20
2019-02-11T13:14:29.728Z,8.27
2019-02-11T13:16:37.913Z,4.83
2019-02-11T13:18:46.142Z,11.03
2019-02-11T13:20:53.093Z,7.10
2019-02-11T13:23:00.492Z,3.10
2019-02-11T13:25:11.346Z,4.17
2019-02-11T13:27:19.455Z,9.60
2019-02-11T13:29:26.426Z,8.63
2019-02-11T13:31:34.209Z,5.70
2019-02-11T13:33:40.896Z,3.47
2019-02-11T13:35:48.184Z,4.83
2019-02-11T13:37:56.502Z,3.00
2019-02-11T13:40:05.344Z,7.83
2019-02-11T13:42:13.596Z,6.50
2019-02-11T13:44:20.367Z,3.07
2019-02-11T13:46:29.443Z,5.50
2019-02-11T13:48:36.359Z,41.17
2019-02-11T13:50:43.175Z,6.07
2019-02-11T13:52:50.431Z,6.20
2019-02-11T13:54:57.422Z,16.60
2019-02-11T13:57:04.737Z,4.90
2019-02-11T13:59:12.104Z,12.03
2019-02-11T14:01:19.594Z,50.00
2019-02-11T14:03:27.666Z,32.63
2019-02-11T14:05:34.944Z,15.63
2019-02-11T14:07:47.164Z,5.70
2019-02-11T14:09:54.565Z,41.47
2019-02-11T14:12:01.350Z,14.60
2019-02-11T14:14:09.121Z,19.43
2019-02-11T14:16:16.252Z,5.87
2019-02-11T14:18:23.270Z,5.43
2019-02-11T14:20:30.470Z,7.20
2019-02-11T14:22:37.290Z,5.00
2019-02-11T14:24:44.366Z,10.20
2019-02-11T14:26:51.428Z,4.83
2019-02-11T14:28:58.464Z,8.00
2019-02-11T14:31:05.876Z,12.67
2019-02-11T14:33:13.299Z,11.93
2019-02-11T14:35:21.753Z,9.33
2019-02-11T14:37:29.470Z,8.00
2019-02-11T14:39:37.450Z,4.77
2019-02-11T14:41:44.513Z,21.93
2019-02-11T14:43:51.351Z,8.47
2019-02-11T14:45:58.405Z,3.93
2019-02-11T14:48:05.504Z,6.63
2019-02-11T14:50:12.859Z,8.93
2019-02-11T14:52:19.516Z,8.23
2019-02-11T14:54:26.299Z,13.17
2019-02-11T14:56:33.650Z,4.90
2019-02-11T14:58:40.348Z,4.13
2019-02-11T15:00:47.201Z,6.10
2019-02-11T15:02:54.180Z,3.77
2019-02-11T15:05:01.037Z,3.67
2019-02-11T15:07:08.210Z,10.20
2019-02-11T15:09:14.996Z,4.23
2019-02-11T15:11:22.090Z,3.50
2019-02-11T15:13:29.147Z,4.07
2019-02-11T15:15:37.787Z,2.47
2019-02-11T15:17:46.311Z,4.07
2019-02-11T15:19:57.067Z,2.80
2019-02-11T15:22:05.718Z,2.83
2019-02-11T15:24:12.668Z,4.03
2019-02-11T15:26:20.098Z,3.83
2019-02-11T15:28:27.119Z,2.67
2019-02-11T15:30:34.170Z,2.60
2019-02-11T15:32:41.527Z,7.13
2019-02-11T15:34:48.773Z,5.90
2019-02-11T15:36:55.926Z,5.63
2019-02-11T15:39:03.073Z,5.13
2019-02-11T15:41:11.395Z,3.93
2019-02-11T15:43:18.443Z,4.77
2019-02-11T15:45:25.385Z,4.07
2019-02-11T15:47:32.256Z,38.37
2019-02-11T15:49:39.352Z,9.80
2019-02-11T15:51:46.326Z,4.60
2019-02-11T15:53:53.328Z,8.30
2019-02-11T15:56:07.706Z,4.90
2019-02-11T15:58:09.516Z,3.83
2019-02-11T16:00:19.896Z,5.40
2019-02-11T16:02:27.285Z,9.17
2019-02-11T16:04:34.725Z,5.40
2019-02-11T16:06:41.592Z,3.30
2019-02-11T16:08:48.805Z,4.03
2019-02-11T16:11:01.248Z,4.93
2019-02-11T16:13:04.865Z,3.57
2019-02-11T16:15:13.712Z,5.03
2019-02-11T16:17:20.904Z,4.57
2019-02-11T16:19:28.065Z,5.50
2019-02-11T16:21:35.136Z,5.17
2019-02-11T16:23:42.343Z,10.87
2019-02-11T16:25:49.555Z,7.17
2019-02-11T16:27:58.040Z,4.87
2019-02-11T16:30:09.654Z,5.13
2019-02-11T16:32:17.032Z,38.80
2019-02-11T16:34:24.106Z,23.67
2019-02-11T16:36:31.193Z,9.13
2019-02-11T16:38:38.712Z,4.80
2019-02-11T16:40:46.905Z,7.70
2019-02-11T16:42:54.084Z,5.70
2019-02-11T16:45:01.131Z,16.50
2019-02-11T16:47:10.330Z,11.57
2019-02-11T16:49:17.345Z,19.90
2019-02-11T16:51:24.674Z,16.90
2019-02-11T16:53:31.545Z,9.43
2019-02-11T16:55:38.426Z,23.40
2019-02-11T16:57:45.549Z,6.17
2019-02-11T16:59:53.174Z,8.23
2019-02-11T17:02:01.064Z,7.80
2019-02-11T17:04:09.461Z,4.87
2019-02-11T17:06:16.906Z,23.30
2019-02-11T17:08:24.165Z,8.10
2019-02-11T17:10:31.304Z,6.37
2019-02-11T17:12:38.524Z,7.77
2019-02-11T17:14:46.307Z,9.67
2019-02-11T17:16:53.544Z,5.00
2019-02-11T17:19:08.848Z,109.63
2019-02-11T17:21:09.984Z,29.43
2019-02-11T17:23:40.395Z,12.80
2019-02-11T17:26:33.646Z,22.73
2019-02-11T17:28:40.064Z,13.10
2019-02-11T17:30:47.536Z,6.07
2019-02-11T17:32:54.944Z,15.63
2019-02-11T17:35:02.504Z,7.60
2019-02-11T17:37:09.864Z,21.00
2019-02-11T17:39:17.224Z,4.70
2019-02-11T17:41:24.933Z,9.60
2019-02-11T17:43:32.369Z,7.33
2019-02-11T17:45:39.425Z,11.17
2019-02-11T17:47:46.537Z,9.03
2019-02-11T17:49:54.092Z,6.60
2019-02-11T17:52:01.311Z,15.03
2019-02-11T17:54:08.630Z,10.77
2019-02-11T17:56:16.827Z,7.60
2019-02-11T17:58:24.036Z,9.33
2019-02-11T18:00:42.584Z,8.93
2019-02-11T18:02:50.224Z,3.20
2019-02-11T18:04:57.445Z,4.00
2019-02-11T18:07:04.578Z,5.83
2019-02-11T18:09:15.026Z,4.70
2019-02-11T18:11:22.385Z,6.00
2019-02-11T18:13:29.485Z,4.23
2019-02-11T18:15:37.264Z,3.23
2019-02-11T18:17:44.584Z,14.27
2019-02-11T18:19:52.083Z,14.63
2019-02-11T18:21:59.723Z,11.10
2019-02-11T18:24:07.224Z,6.83
2019-02-11T18:26:14.364Z,7.17
2019-02-11T18:28:41.844Z,2.93
2019-02-11T18:30:49.105Z,3.80
2019-02-11T18:32:56.464Z,3.10
2019-02-11T18:35:03.787Z,6.00
2019-02-11T18:37:11.227Z,4.37
2019-02-11T18:39:20.104Z,5.47
2019-02-11T18:41:27.573Z,4.70
2019-02-11T18:43:34.704Z,7.10
2019-02-11T18:45:41.916Z,5.00
2019-02-11T18:47:50.472Z,12.83
2019-02-11T18:49:57.958Z,7.57
2019-02-11T18:52:06.837Z,19.90
2019-02-11T18:54:13.995Z,6.77
2019-02-11T18:56:21.195Z,6.73
2019-02-11T18:58:29.765Z,5.63
2019-02-11T19:00:38.406Z,12.43
2019-02-11T19:02:46.005Z,10.03
2019-02-11T19:04:53.205Z,7.27
2019-02-11T19:07:01.185Z,14.27
2019-02-11T19:09:10.116Z,6.73
2019-02-11T19:11:17.326Z,7.33
2019-02-11T19:13:24.412Z,7.80
2019-02-11T19:15:32.065Z,6.70
2019-02-11T19:17:39.685Z,9.33
2019-02-11T19:19:46.797Z,9.90
2019-02-11T19:21:54.397Z,7.87
2019-02-11T19:24:01.858Z,10.03
2019-02-11T19:26:09.219Z,8.27
2019-02-11T19:28:16.863Z,8.57
2019-02-11T19:30:27.625Z,7.40
2019-02-11T19:32:35.317Z,6.47
2019-02-11T19:34:42.716Z,9.00
2019-02-11T19:36:50.162Z,6.77
2019-02-11T19:38:57.835Z,5.73
2019-02-11T19:41:05.084Z,10.90
2019-02-11T19:43:12.254Z,7.37
2019-02-11T19:45:24.491Z,9.40
2019-02-11T19:47:31.730Z,7.83
2019-02-11T19:49:38.713Z,8.17
2019-02-11T19:51:46.503Z,6.93
2019-02-11T19:53:53.734Z,7.33
2019-02-11T19:56:00.871Z,5.93
2019-02-11T19:58:08.532Z,8.97
2019-02-11T20:00:23.913Z,7.33
2019-02-11T20:02:31.250Z,6.20
2019-02-11T20:04:38.646Z,5.47
2019-02-11T20:06:45.903Z,5.20
2019-02-11T20:08:53.326Z,6.33
2019-02-11T20:11:00.618Z,6.50
2019-02-11T20:13:07.899Z,4.57
2019-02-11T20:15:18.667Z,5.70
2019-02-11T20:17:26.450Z,5.83
2019-02-11T20:19:33.759Z,6.60
2019-02-11T20:21:41.697Z,5.00
2019-02-11T20:23:49.357Z,5.17
2019-02-11T20:25:58.500Z,5.37
2019-02-11T20:28:05.749Z,4.97
2019-02-11T20:30:20.139Z,5.13
2019-02-11T20:32:27.907Z,6.37
2019-02-11T20:34:34.953Z,7.17
2019-02-11T20:36:42.388Z,7.47
2019-02-11T20:38:49.527Z,2.57
2019-02-11T20:40:57.169Z,3.37
2019-02-11T20:43:04.310Z,5.37
2019-02-11T20:45:18.597Z,3.90
2019-02-11T20:47:45.734Z,6.27
2019-02-11T20:49:53.528Z,6.77
2019-02-11T20:52:01.013Z,5.63
2019-02-11T20:54:09.057Z,5.50
2019-02-11T20:56:17.688Z,5.47
2019-02-11T20:58:24.791Z,4.27
2019-02-11T21:00:32.305Z,4.87
2019-02-11T21:02:40.167Z,7.90
2019-02-11T21:04:47.609Z,9.60
2019-02-11T21:06:54.891Z,5.77
2019-02-11T21:09:03.505Z,7.80
2019-02-11T21:11:10.500Z,9.37
2019-02-11T21:13:18.160Z,6.17
2019-02-11T21:15:25.597Z,8.87
2019-02-11T21:17:32.705Z,5.57
2019-02-11T21:19:40.133Z,8.10
2019-02-11T21:21:47.082Z,6.27
2019-02-11T21:23:54.254Z,5.20
2019-02-11T21:26:01.493Z,8.27
2019-02-11T21:28:09.469Z,4.17
2019-02-11T21:30:17.199Z,6.90
2019-02-11T21:32:24.391Z,5.90
2019-02-11T21:34:32.136Z,6.50
2019-02-11T21:36:39.869Z,7.43
2019-02-11T21:38:46.975Z,7.10
2019-02-11T21:40:54.158Z,7.27
2019-02-11T21:43:04.576Z,4.87
2019-02-11T21:45:14.240Z,8.07
2019-02-11T21:50:00.397Z,9.73
2019-02-11T21:52:08.789Z,5.07
2019-02-11T21:54:16.237Z,6.37
2019-02-11T21:56:23.688Z,5.47
2019-02-11T21:58:30.729Z,5.57
2019-02-11T22:00:38.179Z,7.53
2019-02-11T22:02:45.790Z,7.73
2019-02-11T22:04:53.000Z,5.40
2019-02-11T22:07:02.886Z,8.17
2019-02-11T22:09:10.640Z,6.83
2019-02-11T22:11:17.322Z,5.40
2019-02-11T22:13:27.470Z,5.47
2019-02-11T22:15:34.369Z,4.17
2019-02-11T22:17:41.260Z,3.50
2019-02-11T22:19:48.166Z,5.57
2019-02-11T22:21:55.057Z,5.40
2019-02-11T22:24:04.814Z,2.70
2019-02-11T22:26:12.007Z,3.47
2019-02-11T22:28:19.144Z,2.73
2019-02-11T22:30:26.365Z,1.57
2019-02-11T22:32:33.016Z,2.53
2019-02-11T22:34:39.825Z,2.23
2019-02-11T22:36:46.796Z,2.33
2019-02-11T22:38:53.957Z,1.70
2019-02-11T22:41:00.695Z,2.83
2019-02-11T22:43:10.308Z,2.87
2019-02-11T22:45:28.241Z,2.87
2019-02-11T22:47:35.570Z,1.70
2019-02-11T22:49:42.371Z,2.47
2019-02-11T22:51:49.434Z,3.67
2019-02-11T22:53:56.593Z,1.37
2019-02-11T22:56:03.490Z,1.10
2019-02-11T22:58:10.728Z,3.73
2019-02-11T23:00:41.358Z,2.67
2019-02-11T23:02:48.053Z,0.93
2019-02-11T23:04:56.019Z,1.40
2019-02-11T23:07:03.041Z,4.07
2019-02-11T23:09:11.652Z,0.93
2019-02-11T23:11:18.493Z,0.90
2019-02-11T23:13:25.208Z,1.87
2019-02-11T23:15:33.784Z,1.80
2019-02-11T23:17:40.664Z,1.77
2019-02-11T23:19:47.222Z,0.83
2019-02-11T23:21:56.924Z,3.20
2019-02-11T23:24:03.889Z,2.83
2019-02-11T23:26:11.763Z,0.63
2019-02-11T23:28:19.886Z,2.03
2019-02-11T23:30:26.626Z,1.17
2019-02-11T23:32:33.358Z,1.40
2019-02-11T23:34:40.017Z,2.17
2019-02-11T23:36:47.297Z,1.10
2019-02-11T23:38:53.908Z,1.37
2019-02-11T23:41:00.398Z,1.80
2019-02-11T23:43:07.791Z,3.47
2019-02-11T23:45:14.656Z,1.20
2019-02-11T23:47:21.693Z,1.80
2019-02-11T23:49:29.227Z,3.17
2019-02-11T23:51:37.765Z,1.30
2019-02-11T23:53:46.064Z,2.67
2019-02-11T23:55:54.009Z,1.93
2019-02-11T23:58:00.568Z,1.53
